Latest Weather Observations for Pallamana

IDS60901

Issued at 12:41 pm CDT Wednesday 16 January 2019 (issued every 10 minutes, with the page automatically refreshed every 10 minutes)

About weather observations | Map of Adelaide area stations | Latest observations for Adelaide area | Other Formats
Station Details ID: 024584 Name: PALLAMANA AERODROME Lat: -35.06 Lon: 139.23 Height: 45.0 m
Data from the previous 72 hours. | See also: Recent months at Pallamana
Date/Time
CDT
Temp
°C
App
Temp
°C
Dew
Point
°C
Rel
Hum
%
Delta-T
°C
Wind Press
QNH
hPa
Press
MSL
hPa
Rain since
9am
mm
Dir  Spd
km/h
Gust
km/h
Spd
kts
Gust
kts
16/12:30pm 31.5 30.0 10.7 27 12.0 SE 9 13 5 7 1009.6 1009.5 0.0
16/12:00pm 31.1 30.8 13.3 33 10.7 ESE 7 11 4 6 1009.5 1009.4 0.0
16/11:30am 28.7 28.8 15.5 44 8.1 ESE 9 13 5 7 1009.8 1009.7 0.0
16/11:00am 26.6 27.3 16.0 52 6.5 SSE 7 15 4 8 1010.4 1010.3 0.0
16/10:30am 23.9 24.2 16.0 61 4.8 S 9 13 5 7 1010.2 1010.1 0.0
16/10:00am 22.8 22.5 16.4 67 3.9 S 13 17 7 9 1010.6 1010.5 0.0
16/09:30am 21.9 21.3 16.7 72 3.2 SW 15 19 8 10 1011.1 1011.0 0.0
16/09:00am 21.8 20.2 16.5 72 3.2 SW 20 24 11 13 1011.1 1011.0 0.0
16/08:30am 21.2 19.4 16.9 76 2.6 SW 22 28 12 15 1011.0 1010.9 0.0
16/08:00am 21.1 18.2 17.0 77 2.5 SW 28 33 15 18 1010.4 1010.3 0.0
16/07:30am 19.5 16.5 16.9 85 1.6 SW 28 33 15 18 1010.3 1010.2 0.0
16/07:00am 18.8 16.7 16.1 84 1.6 SW 22 28 12 15 1010.0 1009.9 0.0
16/06:30am 18.0 16.1 15.1 83 1.7 SW 19 26 10 14 1009.4 1009.3 0.0
16/06:00am 17.0 16.8 13.1 78 2.2 SW 6 15 3 8 1009.2 1009.1 0.0
16/05:30am 17.1 17.7 13.2 78 2.2 WSW 2 7 1 4 1008.8 1008.7 0.0
16/05:00am 17.5 17.9 13.6 78 2.2 WSW 4 9 2 5 1009.1 1009.0 0.0
16/04:30am 18.2 18.1 13.8 75 2.5 SW 7 11 4 6 1009.1 1009.0 0.0
16/04:00am 19.3 17.8 14.1 72 3.0 WSW 15 20 8 11 1009.1 1009.0 0.0
16/03:30am 19.1 17.3 14.5 74 2.7 WSW 17 24 9 13 1009.2 1009.1 0.0
16/03:00am 19.5 17.8 14.7 74 2.8 WSW 17 24 9 13 1009.5 1009.4 0.0
16/02:30am 19.9 17.8 14.8 72 3.0 WSW 19 24 10 13 1009.9 1009.8 0.0
16/02:00am 20.2 18.1 14.6 70 3.3 WSW 19 24 10 13 1010.4 1010.3 0.0
16/01:30am 20.4 18.6 14.4 68 3.5 SW 17 20 9 11 1010.5 1010.4 0.0
16/01:00am 20.8 18.9 14.3 66 3.8 SW 17 20 9 11 1010.7 1010.6 0.0
16/12:30am 21.4 19.4 14.0 62 4.3 SW 17 20 9 11 1010.9 1010.8 0.0
16/12:00am 22.1 19.2 14.1 60 4.7 SW 22 28 12 15 1011.3 1011.1 0.0
 
Date/Time
CDT
Temp
°C
App
Temp
°C
Dew
Point
°C
Rel
Hum
%
Delta-T
°C
Wind Press
QNH
hPa
Press
MSL
hPa
Rain since
9am
mm
Dir  Spd
km/h
Gust
km/h
Spd
kts
Gust
kts
15/11:30pm 22.4 19.5 14.0 59 4.9 SW 22 28 12 15 1011.6 1011.4 0.0
15/11:00pm 22.8 20.1 14.5 59 4.9 SW 22 28 12 15 1011.5 1011.3 0.0
15/10:30pm 23.5 21.1 14.4 56 5.4 SW 20 28 11 15 1010.9 1010.8 0.0
15/10:00pm 24.6 21.1 14.5 53 6.0 SSW 26 35 14 19 1010.3 1010.2 0.0
15/09:30pm 26.5 21.8 11.9 40 8.4 S 28 41 15 22 1010.2 1010.1 0.0
15/09:18pm 28.4 23.0 9.4 30 10.6 SSW 28 39 15 21 1009.8 1009.7 0.0
15/09:00pm 32.2 25.9 -10.4 6 17.4 SW 17 19 9 10 1009.2 1009.1 0.0
15/08:30pm 32.7 28.0 -9.7 6 17.6 SSW 9 11 5 6 1008.8 1008.7 0.0
15/08:00pm 34.6 29.6 -8.1 6 18.5 SSW 11 15 6 8 1008.5 1008.4 0.0
15/07:30pm 37.6 32.0 -10.8 4 20.6 SSE 13 17 7 9 1008.2 1008.1 0.0
15/07:00pm 38.4 32.6 -9.2 4 20.8 SSE 15 19 8 10 1008.3 1008.2 0.0
15/06:30pm 38.4 32.2 -8.4 5 20.8 S 17 22 9 12 1008.0 1007.9 0.0
15/06:00pm 38.7 31.2 -4.9 6 20.5 S 26 33 14 18 1008.2 1008.1 0.0
15/05:30pm 38.7 32.3 -4.9 6 20.5 S 20 35 11 19 1008.1 1008.0 0.0
15/05:00pm 39.0 32.3 -4.3 6 20.5 S 22 30 12 16 1008.2 1008.1 0.0
15/04:30pm 38.7 32.4 -3.6 7 20.3 S 20 30 11 16 1008.4 1008.3 0.0
15/04:00pm 38.0 31.5 -2.7 7 19.7 S 22 35 12 19 1008.6 1008.5 0.0
15/03:30pm 37.8 30.7 -1.2 8 19.3 S 26 37 14 20 1008.9 1008.8 0.0
15/03:00pm 36.5 28.6 -1.7 9 18.6 S 30 39 16 21 1009.4 1009.3 0.0
15/02:30pm 36.2 27.7 -2.1 9 18.5 S 33 46 18 25 1009.5 1009.4 0.0
15/02:00pm 35.7 26.6 -0.6 10 17.9 SSW 37 54 20 29 1009.7 1009.6 0.0
15/01:30pm 35.5 24.6 1.1 11 17.4 SSW 48 59 26 32 1009.6 1009.5 0.0
15/01:00pm 34.5 23.6 5.3 16 15.7 SSW 52 67 28 36 1009.4 1009.3 0.0
15/12:30pm 35.5 27.0 9.2 20 15.1 SSW 44 61 24 33 1008.9 1008.8 0.0
15/12:21pm 36.7 34.5 10.8 21 15.3 SW 13 54 7 29 1008.7 1008.6 0.0
15/12:00pm 41.0 36.7 0.9 8 20.9 NNE 13 20 7 11 1008.0 1007.9 0.0
15/11:30am 39.2 34.2 1.6 9 19.6 NNE 17 22 9 12 1008.1 1008.0 0.0
15/11:00am 37.5 33.2 1.3 10 18.6 NE 13 15 7 8 1008.4 1008.3 0.0
15/10:30am 35.9 33.0 2.6 12 17.3 ENE 7 13 4 7 1008.8 1008.7 0.0
15/10:00am 34.3 31.5 3.0 14 16.2 E 7 11 4 6 1008.8 1008.7 0.0
15/09:30am 32.1 29.1 1.7 14 15.2 E 7 9 4 5 1009.1 1009.0 0.0
15/09:00am 30.6 27.9 2.9 17 14.0 ESE 6 7 3 4 1009.4 1009.3 0.0
15/08:30am 27.3 24.4 1.3 18 12.5 ENE 6 7 3 4 1009.7 1009.6 0.0
15/08:00am 24.2 22.8 3.6 26 10.1 CALM 0 0 0 0 1009.6 1009.5 0.0
15/07:30am 21.8 19.8 0.1 23 9.8 CALM 0 0 0 0 1009.4 1009.3 0.0
15/07:00am 17.8 16.1 1.6 33 7.3 CALM 0 7 0 4 1009.4 1009.3 0.0
15/06:30am 17.8 14.7 -2.6 25 8.4 N 4 7 2 4 1009.2 1009.1 0.0
15/06:00am 16.7 13.6 0.3 33 7.1 N 6 7 3 4 1008.9 1008.8 0.0
15/05:30am 17.1 13.8 -1.5 28 7.8 N 6 9 3 5 1008.8 1008.7 0.0
15/05:00am 17.6 14.3 -0.9 28 7.9 N 6 7 3 4 1008.8 1008.7 0.0
15/04:30am 18.8 16.7 -0.5 27 8.4 CALM 0 7 0 4 1008.7 1008.6 0.0
15/04:00am 19.0 16.2 -0.5 27 8.5 N 4 7 2 4 1009.0 1008.9 0.0
15/03:30am 17.9 16.5 3.3 37 6.8 CALM 0 0 0 0 1009.1 1009.0 0.0
15/03:00am 18.4 15.9 3.8 38 6.9 N 6 6 3 3 1009.2 1009.1 0.0
15/02:30am 19.0 16.9 3.8 36 7.2 N 4 7 2 4 1009.3 1009.2 0.0
15/02:00am 20.8 19.4 3.7 32 8.2 CALM 0 0 0 0 1009.3 1009.2 0.0
15/01:30am 20.6 18.3 4.9 35 7.7 E 6 7 3 4 1009.7 1009.6 0.0
15/01:00am 22.1 20.9 4.7 32 8.6 CALM 0 7 0 4 1009.7 1009.6 0.0
15/12:30am 23.8 21.1 5.4 30 9.3 W 9 15 5 8 1009.8 1009.7 0.0
15/12:00am 25.6 22.3 4.3 25 10.7 W 11 15 6 8 1009.8 1009.7 0.0
 
Date/Time
CDT
Temp
°C
App
Temp
°C
Dew
Point
°C
Rel
Hum
%
Delta-T
°C
Wind Press
QNH
hPa
Press
MSL
hPa
Rain since
9am
mm
Dir  Spd
km/h
Gust
km/h
Spd
kts
Gust
kts
14/11:30pm 25.6 21.7 5.5 27 10.3 W 15 17 8 9 1010.0 1009.9 0.0
14/11:00pm 26.0 21.7 6.8 29 10.1 W 19 24 10 13 1010.3 1010.2 0.0
14/10:30pm 24.9 22.8 11.0 41 7.8 SW 13 20 7 11 1010.6 1010.5 0.0
14/10:00pm 25.2 22.2 12.6 45 7.3 WSW 20 24 11 13 1010.6 1010.5 0.0
14/09:30pm 25.3 23.0 13.1 46 7.1 WSW 17 20 9 11 1010.5 1010.4 0.0
14/09:00pm 26.5 23.6 11.0 38 8.8 SW 17 20 9 11 1010.6 1010.5 0.0
14/08:30pm 27.9 25.0 10.9 34 9.7 SW 17 20 9 11 1010.5 1010.4 0.0
14/08:00pm 30.5 26.8 10.1 28 11.6 SSW 20 26 11 14 1010.5 1010.4 0.0
14/07:30pm 32.2 25.9 3.9 16 14.7 S 26 35 14 19 1010.0 1009.9 0.0
14/07:00pm 33.3 26.5 5.2 17 15.0 SSW 30 43 16 23 1009.8 1009.7 0.0
14/06:30pm 34.8 26.5 -0.4 10 17.3 SSW 33 46 18 25 1009.4 1009.3 0.0
14/06:00pm 35.9 26.9 -3.1 8 18.5 SSW 35 46 19 25 1009.0 1008.9 0.0
14/05:30pm 37.7 29.1 2.7 11 18.4 SSW 37 48 20 26 1008.8 1008.7 0.0
14/05:00pm 37.5 29.9 6.0 14 17.4 S 35 50 19 27 1008.6 1008.5 0.0
14/04:30pm 38.1 30.4 7.3 15 17.4 S 37 50 20 27 1008.7 1008.6 0.0
14/04:00pm 41.0 33.2 2.7 9 20.5 S 33 46 18 25 1008.6 1008.5 0.0
14/03:46pm 40.7 36.8 3.5 10 20.1 SSE 13 43 7 23 1008.6 1008.5 0.0
14/03:30pm 41.6 38.4 3.0 9 20.8 S 9 17 5 9 1008.6 1008.5 0.0
14/03:00pm 40.2 37.3 4.6 11 19.5 N 9 17 5 9 1008.8 1008.7 0.0
14/02:30pm 39.1 35.6 3.4 11 19.1 SE 11 17 6 9 1009.1 1009.0 0.0
14/02:00pm 38.8 35.4 3.9 11 18.8 ENE 11 20 6 11 1009.5 1009.4 0.0
14/01:30pm 37.9 34.9 4.3 12 18.1 NE 9 19 5 10 1009.9 1009.8 0.0
14/01:00pm 36.6 32.2 4.6 14 17.2 NNE 17 26 9 14 1010.1 1010.0 0.0
14/12:30pm 36.0 32.0 6.8 16 16.2 NE 17 26 9 14 1010.7 1010.6 0.0
14/12:00pm 33.9 29.8 8.0 20 14.5 NNE 19 24 10 13 1011.3 1011.1 0.0
14/11:30am 32.2 29.4 11.3 27 12.2 NNE 17 20 9 11 1011.6 1011.4 0.0
14/11:00am 30.2 27.1 11.7 32 10.8 NNE 19 26 10 14 1011.9 1011.7 0.0
14/10:30am 28.8 27.3 11.9 35 9.8 NE 11 19 6 10 1012.2 1012.0 0.0
14/10:00am 26.8 25.4 12.3 40 8.4 NE 11 20 6 11 1012.4 1012.2 0.0
14/09:30am 24.8 25.1 13.5 49 6.6 SE 4 7 2 4 1012.6 1012.4 0.0
14/09:00am 23.1 23.1 14.1 57 5.3 SE 7 9 4 5 1012.9 1012.7 0.0
14/08:30am 21.5 20.8 13.3 59 4.7 SE 9 13 5 7 1013.1 1012.9 0.0
14/08:00am 19.8 20.5 13.3 66 3.7 WSW 2 7 1 4 1013.0 1012.8 0.0
14/07:30am 16.9 16.1 11.8 72 2.8 N 7 7 4 4 1012.9 1012.7 0.0
14/07:00am 13.8 13.4 11.0 83 1.5 S 4 7 2 4 1013.0 1012.8 0.0
14/06:30am 12.3 11.4 9.3 82 1.5 S 4 9 2 5 1012.9 1012.7 0.0
14/06:00am 13.2 13.0 10.5 84 1.4 S 2 6 1 3 1013.0 1012.8 0.0
14/05:30am 12.9 12.9 9.8 81 1.6 CALM 0 0 0 0 1012.8 1012.6 0.0
14/05:00am 13.3 13.5 10.4 82 1.5 CALM 0 0 0 0 1012.6 1012.4 0.0
14/04:30am 13.4 13.1 10.1 80 1.7 S 2 6 1 3 1012.5 1012.3 0.0
14/04:00am 14.0 13.1 10.6 80 1.8 S 6 7 3 4 1012.5 1012.3 0.0
14/03:30am 15.1 14.0 10.8 75 2.3 S 7 9 4 5 1012.4 1012.2 0.0
14/03:00am 16.9 15.7 11.6 71 2.9 SW 9 11 5 6 1012.6 1012.4 0.0
14/02:30am 17.8 15.5 11.6 67 3.4 WSW 15 20 8 11 1012.9 1012.7 0.0
14/02:00am 17.9 15.3 11.9 68 3.3 WSW 17 22 9 12 1013.4 1013.2 0.0
14/01:30am 17.6 15.8 12.2 70 3.0 WSW 13 19 7 10 1013.7 1013.5 0.0
14/01:00am 17.6 15.4 12.2 70 3.0 WSW 15 20 8 11 1013.9 1013.7 0.0
14/12:30am 17.2 15.5 12.3 73 2.7 SW 13 17 7 9 1014.2 1014.0 0.0
14/12:00am 17.5 15.9 12.7 73 2.7 WSW 13 15 7 8 1014.4 1014.2 0.0
 
Date/Time
CDT
Temp
°C
App
Temp
°C
Dew
Point
°C
Rel
Hum
%
Delta-T
°C
Wind Press
QNH
hPa
Press
MSL
hPa
Rain since
9am
mm
Dir  Spd
km/h
Gust
km/h
Spd
kts
Gust
kts
13/11:30pm 17.7 15.9 13.3 75 2.5 WSW 15 19 8 10 1014.7 1014.5 0.0
13/11:00pm 17.5 15.1 13.8 79 2.1 WSW 19 22 10 12 1015.0 1014.8 0.0
13/10:30pm 17.8 15.8 13.9 78 2.2 WSW 17 24 9 13 1015.2 1015.0 0.0
13/10:00pm 18.3 16.3 13.9 75 2.5 SW 17 22 9 12 1015.3 1015.1 0.0
13/09:30pm 18.9 16.2 13.6 71 3.0 SW 20 24 11 13 1015.2 1015.0 0.0
13/09:00pm 19.9 17.1 13.2 65 3.8 SW 20 28 11 15 1015.3 1015.1 0.0
13/08:30pm 21.1 18.1 12.6 58 4.8 SSW 20 28 11 15 1015.2 1015.0 0.0
13/08:00pm 22.8 18.7 11.3 48 6.4 SSW 24 33 13 18 1014.9 1014.7 0.0
13/07:30pm 24.1 18.3 9.6 39 7.9 SW 30 37 16 20 1014.7 1014.5 0.0
13/07:00pm 25.3 20.0 9.7 37 8.6 SSW 28 39 15 21 1014.8 1014.6 0.0
13/06:30pm 25.9 20.4 9.0 34 9.2 SSW 28 35 15 19 1014.7 1014.5 0.0
13/06:00pm 26.4 20.7 9.8 35 9.2 SW 30 37 16 20 1014.8 1014.6 0.0
13/05:30pm 26.5 20.3 9.2 33 9.5 SW 32 39 17 21 1014.9 1014.7 0.0
13/05:00pm 27.3 21.2 9.9 33 9.7 SW 32 39 17 21 1015.0 1014.8 0.0
13/04:30pm 27.7 21.5 9.5 32 10.1 SW 32 39 17 21 1015.2 1015.0 0.0
13/04:00pm 28.8 23.9 8.3 27 11.2 SSW 24 39 13 21 1015.3 1015.1 0.0
13/03:30pm 28.0 22.9 7.5 27 11.0 SSW 24 32 13 17 1015.7 1015.5 0.0
13/03:00pm 28.1 22.4 6.5 25 11.4 SSW 26 35 14 19 1016.1 1015.9 0.0
13/02:30pm 27.7 21.9 6.4 26 11.2 SSW 26 35 14 19 1016.4 1016.2 0.0
13/02:00pm 28.7 22.8 3.8 20 12.6 S 24 33 13 18 1016.6 1016.4 0.0
13/01:30pm 28.2 23.2 4.8 22 12.0 S 20 26 11 14 1017.2 1017.0 0.0
13/01:00pm 26.9 20.6 1.4 19 12.2 SSW 24 32 13 17 1017.8 1017.6 0.0

Latest Capital City Observations: Canberra | Sydney | Melbourne | Brisbane | Adelaide | Perth | Hobart | Darwin

Other Formats:

Comma delimited format used in spreadsheet applications
http://www.bom.gov.au/fwo/IDS60901/IDS60901.95818.axf

JavaScript Object Notation format (JSON) in row-major order
http://www.bom.gov.au/fwo/IDS60901/IDS60901.95818.json